Time;durP1;ratioP1;P1;durP2;ratioP2;P2;SDS_P1;SDS_P2;PMS_P1;PMS_P2;Temp;Humidity;BMP_temperature;BMP_pressure;BME280_temperature;BME280_humidity;BME280_pressure;Samples;Min_cycle;Max_cycle;Signal;HPM_P1;HPM_P2
2022/03/24 00:02:07;;;;;;;36.55;20.65;;;;;;;6.36;80.59;103027.41;5017963;28;20321;-77
2022/03/24 00:04:32;;;;;;;42.42;22.15;;;;;;;6.35;79.69;103033.56;5018946;28;20025;-77
2022/03/24 00:06:58;;;;;;;38.15;21.67;;;;;;;6.34;78.64;103032.72;5019436;28;20057;-77
2022/03/24 00:09:24;;;;;;;37.95;20.45;;;;;;;6.30;78.09;103014.56;5013399;28;20038;-77
2022/03/24 00:11:49;;;;;;;34.15;18.98;;;;;;;6.47;78.15;103047.91;5003446;28;20140;-77
2022/03/24 00:14:16;;;;;;;34.88;19.15;;;;;;;6.44;76.99;103048.03;5007591;28;20041;-77
2022/03/24 00:16:43;;;;;;;38.78;21.50;;;;;;;6.40;77.69;103044.69;5014858;28;20037;-77
2022/03/24 00:19:09;;;;;;;38.13;21.40;;;;;;;6.36;77.48;103046.63;5018283;28;20030;-77
2022/03/24 00:21:35;;;;;;;38.75;23.42;;;;;;;6.25;78.32;103037.50;5019257;28;20044;-77
2022/03/24 00:24:01;;;;;;;39.97;22.35;;;;;;;6.26;79.07;103052.34;5021303;28;20034;-77
2022/03/24 00:26:26;;;;;;;35.45;18.13;;;;;;;6.25;77.80;103048.00;5027092;28;20049;-78
2022/03/24 00:28:51;;;;;;;38.53;21.67;;;;;;;6.26;76.91;103053.19;5019192;28;20036;-78
2022/03/24 00:31:17;;;;;;;38.60;22.02;;;;;;;6.11;77.46;103020.63;5017772;28;20489;-78
2022/03/24 00:33:42;;;;;;;43.53;23.05;;;;;;;6.18;78.54;103050.91;4985564;28;20017;-77
2022/03/24 00:36:11;;;;;;;37.83;19.85;;;;;;;6.17;78.15;103041.31;5007351;28;20125;-77
2022/03/24 00:38:40;;;;;;;33.92;20.75;;;;;;;6.02;78.18;103021.03;5013514;28;20072;-77
2022/03/24 00:41:06;;;;;;;41.88;20.83;;;;;;;5.95;78.25;103009.97;5017842;28;20024;-78
2022/03/24 00:43:32;;;;;;;40.42;20.63;;;;;;;6.01;77.66;103024.59;5011662;28;20022;-77
2022/03/24 00:45:58;;;;;;;45.03;22.23;;;;;;;6.08;78.27;103036.50;5016760;28;20414;-77
2022/03/24 00:48:25;;;;;;;42.30;24.30;;;;;;;6.07;79.23;103040.00;5024031;28;20026;-77
2022/03/24 00:50:51;;;;;;;45.38;23.25;;;;;;;6.05;79.85;103036.59;5006593;28;20375;-77
2022/03/24 00:53:17;;;;;;;43.50;22.58;;;;;;;5.88;80.06;103013.75;5024443;28;20096;-77
2022/03/24 00:55:43;;;;;;;39.65;23.42;;;;;;;5.85;79.74;103007.78;5019879;28;20056;-77
2022/03/24 00:58:10;;;;;;;42.92;23.38;;;;;;;5.96;79.60;103035.25;5014219;28;20041;-77
2022/03/24 01:00:37;;;;;;;40.42;22.40;;;;;;;5.96;79.86;103035.25;5019309;28;20034;-77
2022/03/24 01:03:06;;;;;;;41.15;23.70;;;;;;;5.82;80.33;103019.25;5026401;28;20030;-77
2022/03/24 01:05:32;;;;;;;36.95;23.48;;;;;;;5.91;80.55;103031.09;5022298;28;20053;-78
2022/03/24 01:07:58;;;;;;;38.85;21.92;;;;;;;5.89;80.09;103030.31;5013314;28;20025;-77
2022/03/24 01:10:24;;;;;;;41.35;22.70;;;;;;;5.86;80.24;103025.22;5023775;28;20501;-77
2022/03/24 01:12:50;;;;;;;39.28;21.23;;;;;;;5.67;79.81;102999.78;5015490;28;20485;-77
2022/03/24 01:15:19;;;;;;;44.97;23.30;;;;;;;5.63;79.96;102992.13;5013332;28;20033;-77
2022/03/24 01:17:45;;;;;;;47.70;23.27;;;;;;;5.75;80.37;103016.03;5026287;28;20018;-78
2022/03/24 01:20:13;;;;;;;44.55;23.35;;;;;;;5.73;81.16;103015.25;5018282;28;20037;-78
2022/03/24 01:22:39;;;;;;;40.58;21.75;;;;;;;5.72;80.86;103013.53;5006938;28;20034;-77
2022/03/24 01:25:06;;;;;;;42.35;22.50;;;;;;;5.56;80.75;102989.75;5016195;28;20029;-77
2022/03/24 01:27:32;;;;;;;45.90;23.65;;;;;;;5.62;81.46;103009.63;5001114;28;20033;-77
2022/03/24 01:29:59;;;;;;;42.95;22.88;;;;;;;5.63;81.40;103013.91;5017178;28;20083;-77
2022/03/24 01:32:28;;;;;;;46.47;23.50;;;;;;;5.50;81.20;102990.00;5021186;28;20033;-77
2022/03/24 01:34:55;;;;;;;44.67;24.30;;;;;;;5.60;81.62;103008.81;5003858;28;20043;-77
2022/03/24 01:37:22;;;;;;;43.33;23.75;;;;;;;5.55;82.30;103009.03;5022583;28;20029;-77
2022/03/24 01:39:48;;;;;;;41.22;22.80;;;;;;;5.47;82.81;102995.38;5017379;28;20072;-77
2022/03/24 01:42:16;;;;;;;40.65;22.63;;;;;;;5.40;82.58;102988.72;5021526;28;20034;-78
2022/03/24 01:44:42;;;;;;;46.53;24.63;;;;;;;5.43;83.18;103000.81;5015296;28;20564;-77
2022/03/24 01:47:09;;;;;;;51.33;25.13;;;;;;;5.29;82.64;102983.91;5023813;28;20547;-77
2022/03/24 01:49:40;;;;;;;48.03;24.88;;;;;;;5.25;82.31;102971.84;5010381;28;20122;-77
2022/03/24 01:52:10;;;;;;;43.72;25.17;;;;;;;5.24;84.42;102970.16;5018392;28;20021;-77
2022/03/24 01:54:38;;;;;;;45.75;23.80;;;;;;;5.41;86.04;103002.66;5016538;28;20501;-77
2022/03/24 01:57:05;;;;;;;53.40;25.20;;;;;;;5.26;86.23;102972.72;5011453;28;20075;-77
2022/03/24 01:59:31;;;;;;;50.22;26.15;;;;;;;5.31;85.24;102991.69;5012631;28;20021;-77
2022/03/24 02:01:57;;;;;;;42.00;22.45;;;;;;;5.31;85.11;102987.31;5015067;28;20053;-77
2022/03/24 02:04:23;;;;;;;47.58;24.27;;;;;;;5.27;85.39;102988.34;5018965;28;20046;-77
2022/03/24 02:06:49;;;;;;;54.05;27.33;;;;;;;5.08;86.23;102962.06;5015058;28;20052;-77
2022/03/24 02:09:15;;;;;;;48.72;25.48;;;;;;;5.24;86.56;102991.09;4998370;28;20034;-77
2022/03/24 02:11:41;;;;;;;50.10;28.13;;;;;;;5.08;86.78;102963.84;5020994;28;20029;-77
2022/03/24 02:14:07;;;;;;;43.58;25.65;;;;;;;5.17;86.64;102979.16;5017064;28;20029;-77
2022/03/24 02:16:35;;;;;;;49.25;25.63;;;;;;;5.16;85.25;102985.31;5019898;28;20032;-78
2022/03/24 02:19:21;;;;;;;47.63;23.50;;;;;;;5.06;85.72;102961.28;5021233;28;20206;-77
2022/03/24 02:21:48;;;;;;;45.30;24.75;;;;;;;5.04;86.95;102952.63;5020007;28;20092;-78
2022/03/24 02:24:16;;;;;;;47.22;25.35;;;;;;;5.16;88.00;102977.44;5004570;28;20401;-77
2022/03/24 02:26:44;;;;;;;45.80;24.95;;;;;;;5.12;87.75;102975.91;5020384;28;20080;-77
2022/03/24 02:29:15;;;;;;;57.28;29.92;;;;;;;5.13;89.05;102973.19;5014827;28;20026;-78
2022/03/24 02:31:45;;;;;;;;;;;;;;;5.17;89.36;102968.69;5016918;28;20079;-78
2022/03/24 02:36:58;;;;;;;49.40;25.90;;;;;;;5.03;87.45;102955.31;5016021;28;20124;-77
2022/03/24 02:39:24;;;;;;;48.72;25.80;;;;;;;5.02;86.49;102944.00;5014742;28;20412;-77
2022/03/24 02:41:52;;;;;;;48.40;25.20;;;;;;;4.84;84.67;102927.28;5016826;28;20064;-78
2022/03/24 02:44:20;;;;;;;49.03;26.33;;;;;;;5.10;83.41;102965.47;5019403;28;20030;-77
2022/03/24 02:46:47;;;;;;;49.40;26.75;;;;;;;5.08;83.71;102969.09;5018603;28;20069;-77
2022/03/24 02:49:31;;;;;;;49.38;25.00;;;;;;;5.03;83.44;102960.53;5015183;28;20037;-78
2022/03/24 02:51:59;;;;;;;47.50;24.95;;;;;;;4.99;84.58;102958.97;5000446;28;20486;-77
2022/03/24 02:54:24;;;;;;;47.33;25.05;;;;;;;4.90;85.03;102960.19;5018571;28;20034;-77
2022/03/24 02:56:50;;;;;;;48.85;26.05;;;;;;;4.94;85.79;102961.75;5006253;28;20084;-77
2022/03/24 02:59:16;;;;;;;47.28;24.75;;;;;;;4.91;86.70;102962.75;5014113;28;20053;-77
2022/03/24 03:01:47;;;;;;;41.50;24.33;;;;;;;4.88;86.36;102956.81;5019002;28;20034;-77
2022/03/24 03:04:14;;;;;;;43.83;23.45;;;;;;;4.85;84.84;102959.53;5015164;28;20037;-77
2022/03/24 03:06:39;;;;;;;46.90;25.30;;;;;;;4.67;84.64;102929.72;5024639;28;20053;-77
2022/03/24 03:09:06;;;;;;;47.58;25.05;;;;;;;4.73;85.00;102953.88;5021767;28;20053;-77
2022/03/24 03:11:32;;;;;;;45.45;24.80;;;;;;;4.75;85.63;102961.66;5018854;28;20076;-77
2022/03/24 03:13:59;;;;;;;47.53;24.17;;;;;;;4.59;85.91;102943.06;5015278;28;20030;-77
2022/03/24 03:16:25;;;;;;;48.20;24.98;;;;;;;4.71;86.23;102955.69;5023715;28;20042;-77
2022/03/24 03:18:51;;;;;;;49.55;25.08;;;;;;;4.69;87.25;102964.50;5015820;28;20260;-78
2022/03/24 03:21:17;;;;;;;46.83;24.90;;;;;;;4.59;87.97;102960.53;5030712;28;20098;-78
2022/03/24 03:23:43;;;;;;;53.03;27.40;;;;;;;4.63;88.19;102956.91;4998117;28;20033;-78
2022/03/24 03:26:10;;;;;;;53.20;28.02;;;;;;;4.65;89.12;102958.53;5028075;28;20128;-77
2022/03/24 03:28:36;;;;;;;46.78;25.98;;;;;;;4.66;88.79;102960.25;5000057;28;20052;-77
2022/03/24 03:31:02;;;;;;;45.45;24.02;;;;;;;4.65;89.49;102953.31;5028318;28;20104;-77
2022/03/24 03:33:28;;;;;;;47.80;24.10;;;;;;;4.63;88.97;102962.13;5029563;28;20112;-78
2022/03/24 03:35:53;;;;;;;45.95;26.60;;;;;;;4.55;88.82;102946.72;5011278;28;20062;-76
2022/03/24 03:38:20;;;;;;;47.40;25.30;;;;;;;4.61;88.23;102958.72;5010233;28;20035;-76
2022/03/24 03:40:46;;;;;;;60.03;27.60;;;;;;;4.60;87.38;102963.09;5024770;28;20051;-76
2022/03/24 03:43:14;;;;;;;53.83;28.20;;;;;;;4.61;87.59;102956.94;5021610;28;20073;-77
2022/03/24 03:45:42;;;;;;;56.58;28.40;;;;;;;4.48;89.17;102938.25;5025564;28;20048;-77
2022/03/24 03:48:09;;;;;;;54.97;28.67;;;;;;;4.53;90.21;102949.41;5004395;28;20029;-76
2022/03/24 03:50:35;;;;;;;53.13;27.55;;;;;;;4.46;91.69;102950.53;5026721;28;20033;-76
2022/03/24 03:53:01;;;;;;;56.67;27.90;;;;;;;4.31;92.48;102933.69;5018690;28;20572;-76
2022/03/24 03:55:27;;;;;;;58.28;29.70;;;;;;;4.36;92.89;102949.22;4995075;28;20564;-76
2022/03/24 03:57:53;;;;;;;49.58;26.73;;;;;;;4.31;93.09;102927.59;5020279;28;20025;-76
2022/03/24 04:03:04;;;;;;;55.72;27.73;;;;;;;4.36;93.02;102933.53;5003391;28;20053;-76
2022/03/24 04:05:33;;;;;;;54.03;27.70;;;;;;;4.36;93.43;102938.75;5020351;28;20022;-76
2022/03/24 04:08:03;;;;;;;58.83;29.25;;;;;;;4.37;93.71;102931.75;5025327;28;20085;-79
2022/03/24 04:10:30;;;;;;;59.40;29.30;;;;;;;4.50;93.52;102953.91;5026107;28;20057;-77
2022/03/24 04:12:55;;;;;;;49.33;26.98;;;;;;;4.52;92.62;102957.31;5019093;28;20029;-77
2022/03/24 04:15:24;;;;;;;50.00;26.80;;;;;;;4.45;91.42;102941.00;5009919;28;20409;-78
2022/03/24 04:17:52;;;;;;;53.83;28.02;;;;;;;4.53;91.79;102959.88;5021830;28;20026;-77
2022/03/24 04:20:21;;;;;;;49.92;26.48;;;;;;;4.54;90.80;102958.09;5020017;28;20032;-78
2022/03/24 04:22:50;;;;;;;52.20;25.90;;;;;;;4.56;91.32;102960.66;5021204;28;20022;-78
2022/03/24 04:25:20;;;;;;;48.60;27.35;;;;;;;4.30;90.86;102915.44;5026243;28;20037;-78
2022/03/24 04:27:49;;;;;;;50.90;25.58;;;;;;;4.45;90.59;102950.63;5018365;28;20021;-77
2022/03/24 04:30:15;;;;;;;52.47;25.25;;;;;;;4.47;91.49;102967.94;5013614;28;20037;-77
2022/03/24 04:32:43;;;;;;;52.67;28.27;;;;;;;4.27;91.14;102921.66;5022830;28;20025;-77
2022/03/24 04:35:09;;;;;;;50.22;26.40;;;;;;;4.46;91.75;102949.69;5025006;28;20071;-78
2022/03/24 04:37:36;;;;;;;55.10;28.92;;;;;;;4.45;92.11;102946.22;5017872;28;20021;-78
2022/03/24 04:40:03;;;;;;;54.35;29.70;;;;;;;4.45;92.57;102942.78;5026967;28;20059;-78
2022/03/24 04:42:29;;;;;;;48.50;28.55;;;;;;;4.43;93.38;102950.66;5019525;28;20493;-77
2022/03/24 04:44:55;;;;;;;54.50;29.00;;;;;;;4.41;92.79;102949.88;5013720;28;20040;-76
2022/03/24 04:47:21;;;;;;;49.58;27.10;;;;;;;4.38;92.58;102947.38;5020315;28;20025;-78
2022/03/24 04:49:46;;;;;;;52.47;28.48;;;;;;;4.34;92.17;102943.19;5009561;28;20456;-78
2022/03/24 04:52:12;;;;;;;58.58;29.00;;;;;;;4.32;92.93;102942.38;5003692;28;20478;-77
2022/03/24 04:54:38;;;;;;;54.53;28.23;;;;;;;4.37;92.70;102955.28;4999321;28;20062;-77
2022/03/24 04:57:04;;;;;;;49.50;28.15;;;;;;;4.27;92.58;102946.94;5025617;28;20032;-78
2022/03/24 04:59:30;;;;;;;53.88;31.02;;;;;;;4.32;93.26;102958.06;5013922;28;20032;-77
2022/03/24 05:01:56;;;;;;;54.90;29.40;;;;;;;4.25;93.19;102941.78;5018096;28;20409;-77
2022/03/24 05:04:23;;;;;;;60.75;31.05;;;;;;;4.30;93.24;102942.44;5021010;28;20038;-77
2022/03/24 05:06:49;;;;;;;55.85;29.42;;;;;;;4.37;93.23;102956.13;5004861;28;20049;-78
2022/03/24 05:09:15;;;;;;;55.03;30.67;;;;;;;4.29;93.15;102932.03;5016129;28;20028;-78
2022/03/24 05:11:40;;;;;;;48.05;27.73;;;;;;;4.34;91.92;102953.63;4983839;28;20417;-77
2022/03/24 05:14:05;;;;;;;52.17;29.33;;;;;;;4.29;91.54;102947.72;5015385;28;20038;-76
2022/03/24 05:16:31;;;;;;;44.92;24.55;;;;;;;4.28;91.29;102949.47;5018735;28;20025;-76
2022/03/24 05:18:56;;;;;;;42.70;24.35;;;;;;;4.22;89.27;102952.31;5010916;28;20079;-76
2022/03/24 05:21:22;;;;;;;48.25;25.23;;;;;;;4.07;87.78;102927.63;4998636;28;20038;-76
2022/03/24 05:23:48;;;;;;;46.17;24.38;;;;;;;4.18;86.03;102952.50;5004467;28;20040;-76
2022/03/24 05:26:13;;;;;;;45.55;24.63;;;;;;;4.04;84.19;102937.34;5010925;28;20357;-76
2022/03/24 05:28:39;;;;;;;51.33;25.35;;;;;;;4.10;85.25;102952.78;4999252;28;20032;-77
2022/03/24 05:31:05;;;;;;;54.20;28.73;;;;;;;4.01;87.28;102940.91;5003115;28;20021;-76
2022/03/24 05:33:30;;;;;;;54.53;27.52;;;;;;;3.94;88.61;102936.78;5020352;28;20026;-76
2022/03/24 05:35:56;;;;;;;49.38;24.88;;;;;;;3.94;89.35;102938.56;4994664;28;20113;-76
2022/03/24 05:38:23;;;;;;;47.90;24.58;;;;;;;4.01;88.71;102951.38;4999192;28;20041;-76
2022/03/24 05:40:49;;;;;;;48.70;26.98;;;;;;;4.03;88.12;102957.38;5014118;28;20036;-76
2022/03/24 05:43:14;;;;;;;48.70;26.42;;;;;;;3.99;86.62;102952.34;5016428;28;20037;-76
2022/03/24 05:45:39;;;;;;;44.17;22.77;;;;;;;4.02;85.08;102955.66;5013260;28;20025;-76
2022/03/24 05:48:05;;;;;;;38.70;22.60;;;;;;;4.02;85.68;102960.91;5016156;28;20044;-76
2022/03/24 05:50:31;;;;;;;45.45;24.00;;;;;;;4.02;84.94;102960.91;5018405;28;20029;-76
2022/03/24 05:52:57;;;;;;;42.08;22.60;;;;;;;4.05;85.93;102962.53;5015542;28;20041;-78
2022/03/24 05:55:23;;;;;;;39.97;21.88;;;;;;;3.95;84.62;102940.28;5015845;28;20682;-78
2022/03/24 05:57:49;;;;;;;46.45;22.77;;;;;;;4.09;85.09;102962.41;5011616;28;20033;-78
2022/03/24 06:00:15;;;;;;;40.33;22.13;;;;;;;3.99;85.27;102940.13;5002832;28;20039;-79
2022/03/24 06:02:41;;;;;;;37.70;22.45;;;;;;;4.18;85.34;102960.34;5014389;28;20065;-77
2022/03/24 06:05:12;;;;;;;46.30;22.25;;;;;;;4.18;86.19;102957.72;5019557;28;20117;-76
2022/03/24 06:07:37;;;;;;;42.03;22.02;;;;;;;4.24;85.25;102954.88;5012473;28;20033;-77
2022/03/24 06:10:03;;;;;;;41.65;24.05;;;;;;;4.25;85.21;102951.38;5010942;28;20321;-78
2022/03/24 06:12:31;;;;;;;44.25;22.85;;;;;;;4.39;85.78;102956.91;5015556;28;20496;-77
2022/03/24 06:14:57;;;;;;;38.83;23.25;;;;;;;4.47;85.08;102957.50;4996423;28;20025;-77
2022/03/24 06:17:22;;;;;;;41.65;22.08;;;;;;;4.48;84.30;102953.09;4993753;28;20484;-77
2022/03/24 06:19:48;;;;;;;47.78;23.95;;;;;;;4.60;84.50;102957.88;4989302;28;20036;-77
2022/03/24 06:22:14;;;;;;;39.40;22.67;;;;;;;4.74;86.11;102973.03;4986566;28;20539;-77
2022/03/24 06:24:40;;;;;;;52.20;27.80;;;;;;;4.78;nan;102961.53;5008889;28;20030;-77
2022/03/24 06:27:06;;;;;;;46.75;24.85;;;;;;;4.86;88.48;102974.31;5006181;28;20040;-79
2022/03/24 06:29:31;;;;;;;46.47;24.33;;;;;;;4.94;89.21;102973.09;5010174;28;20052;-77
2022/03/24 06:31:57;;;;;;;47.92;27.75;;;;;;;5.06;87.83;102978.75;5007335;28;20026;-76
2022/03/24 06:34:23;;;;;;;43.03;23.02;;;;;;;5.16;87.29;102972.22;5007472;28;20100;-78
2022/03/24 06:36:50;;;;;;;42.10;22.50;;;;;;;5.22;85.52;102968.50;5014038;28;20033;-77
2022/03/24 06:39:16;;;;;;;39.92;23.70;;;;;;;5.37;84.61;102986.19;5007556;28;20040;-77
2022/03/24 06:41:42;;;;;;;40.55;24.33;;;;;;;5.47;85.22;102982.28;5009624;28;20108;-76
2022/03/24 06:44:08;;;;;;;49.30;26.38;;;;;;;5.60;86.31;102981.78;5009074;28;20038;-76
2022/03/24 06:46:35;;;;;;;47.45;24.92;;;;;;;5.68;84.87;102980.53;4993829;28;20114;-77
2022/03/24 06:49:00;;;;;;;42.90;23.92;;;;;;;5.75;84.05;102970.66;5010663;28;20445;-76
2022/03/24 06:51:26;;;;;;;47.22;25.55;;;;;;;5.96;85.09;102989.84;5013285;28;20022;-77
2022/03/24 06:53:51;;;;;;;43.83;25.10;;;;;;;6.06;85.53;102991.16;5013788;28;20603;-77
2022/03/24 06:56:17;;;;;;;47.70;25.27;;;;;;;6.06;85.30;102964.94;5001365;28;20039;-76
2022/03/24 06:58:43;;;;;;;52.72;27.42;;;;;;;6.31;85.35;102990.03;5020305;28;20030;-76
2022/03/24 07:01:10;;;;;;;46.85;24.02;;;;;;;6.33;84.89;102961.97;5021380;28;20516;-78
2022/03/24 07:03:37;;;;;;;44.47;25.30;;;;;;;6.59;84.11;102994.88;5014159;28;20398;-77
2022/03/24 07:06:03;;;;;;;52.42;27.15;;;;;;;6.76;85.88;102980.97;5023212;28;20581;-77
2022/03/24 07:08:28;;;;;;;49.92;28.88;;;;;;;6.89;87.41;102981.22;5000413;28;20493;-77
2022/03/24 07:10:54;;;;;;;48.33;28.52;;;;;;;6.98;87.31;102975.53;5018314;28;20049;-76
2022/03/24 07:13:20;;;;;;;49.38;27.00;;;;;;;7.16;86.39;102969.41;4998958;28;20048;-76
2022/03/24 07:15:45;;;;;;;47.15;25.35;;;;;;;7.53;84.42;102992.97;5020296;28;20025;-76
2022/03/24 07:18:11;;;;;;;47.40;26.52;;;;;;;7.70;83.22;102998.22;5017297;28;20065;-77
2022/03/24 07:20:37;;;;;;;48.42;27.58;;;;;;;7.81;80.79;102995.88;5021277;28;20029;-78
2022/03/24 07:23:03;;;;;;;49.15;27.30;;;;;;;7.92;80.54;102989.22;5019553;28;20033;-76
2022/03/24 07:25:33;;;;;;;49.40;30.55;;;;;;;8.08;80.73;103005.03;5016338;28;20034;-78
2022/03/24 07:27:59;;;;;;;48.72;28.17;;;;;;;8.19;80.24;102998.28;5021040;28;20075;-76
2022/03/24 07:30:25;;;;;;;54.85;29.63;;;;;;;8.33;82.24;102999.31;5017463;28;20521;-77
2022/03/24 07:32:52;;;;;;;54.25;30.67;;;;;;;8.57;83.71;103003.28;5012726;28;20319;-78
2022/03/24 07:35:18;;;;;;;62.95;33.33;;;;;;;8.89;83.38;102987.50;5019475;28;20095;-77
2022/03/24 07:37:47;;;;;;;52.42;31.80;;;;;;;9.84;81.54;103013.59;5016938;28;20029;-78
2022/03/24 07:40:14;;;;;;;54.83;31.48;;;;;;;10.34;77.46;102994.78;5019100;28;20033;-78
2022/03/24 07:42:39;;;;;;;54.35;32.50;;;;;;;10.65;74.93;103010.38;5021475;28;20018;-78
2022/03/24 07:45:06;;;;;;;54.22;29.70;;;;;;;10.79;73.37;103017.41;4999291;28;20415;-78
2022/03/24 07:47:31;;;;;;;48.97;29.75;;;;;;;10.84;72.78;103003.91;5019555;28;20029;-78
2022/03/24 07:49:57;;;;;;;49.47;29.45;;;;;;;10.94;73.83;103010.31;5019670;28;20030;-76
2022/03/24 07:52:26;;;;;;;48.10;27.90;;;;;;;11.09;73.35;103019.88;5014200;28;20029;-77
2022/03/24 07:54:58;;;;;;;54.83;28.75;;;;;;;11.23;73.50;103015.47;5019042;28;20117;-77
2022/03/24 07:57:30;;;;;;;52.08;30.75;;;;;;;11.74;74.18;103010.31;5018787;28;20462;-78
2022/03/24 07:59:57;;;;;;;52.50;31.75;;;;;;;13.06;72.02;103016.00;5016751;28;20292;-78
2022/03/24 08:02:23;;;;;;;47.75;30.38;;;;;;;14.57;67.14;103021.28;5007031;28;20033;-78
2022/03/24 08:04:49;;;;;;;47.40;30.30;;;;;;;15.66;63.65;103027.38;5017659;28;20475;-79
2022/03/24 08:07:15;;;;;;;41.97;29.25;;;;;;;16.89;59.24;103027.38;5018923;28;20053;-78
2022/03/24 08:09:40;;;;;;;48.05;31.67;;;;;;;17.80;55.81;103022.53;4999407;28;20025;-78
2022/03/24 08:12:07;;;;;;;46.03;30.65;;;;;;;18.75;53.11;103029.44;5018422;28;20034;-78
2022/03/24 08:14:32;;;;;;;46.40;31.60;;;;;;;19.45;51.39;103031.44;5003793;28;20058;-78
2022/03/24 08:16:58;;;;;;;42.28;31.65;;;;;;;20.00;49.50;103039.19;5019105;28;20163;-78
2022/03/24 08:19:23;;;;;;;42.88;30.02;;;;;;;20.65;48.01;103037.81;5001733;28;20368;-78
2022/03/24 08:21:48;;;;;;;45.15;31.88;;;;;;;20.93;46.71;103033.03;5001493;28;20069;-79
2022/03/24 08:24:14;;;;;;;42.65;30.50;;;;;;;21.20;46.84;103031.84;4999467;28;20038;-79
2022/03/24 08:26:40;;;;;;;46.95;33.05;;;;;;;21.42;45.87;103029.53;5019951;28;20033;-79
2022/03/24 08:29:06;;;;;;;44.25;31.80;;;;;;;21.98;44.18;103036.66;5006963;28;20033;-79
2022/03/24 08:31:33;;;;;;;43.55;33.92;;;;;;;22.25;43.25;103033.72;5016698;28;20192;-78
2022/03/24 08:33:58;;;;;;;44.55;34.40;;;;;;;22.71;42.85;103041.91;5002503;28;20049;-79
2022/03/24 08:36:24;;;;;;;39.55;30.48;;;;;;;22.99;42.44;103040.38;5024835;28;20036;-79
2022/03/24 08:38:50;;;;;;;42.25;32.88;;;;;;;23.37;41.90;103042.31;5023517;28;20022;-79
2022/03/24 08:41:15;;;;;;;41.22;31.85;;;;;;;23.62;41.10;103037.50;5022385;28;20042;-79
2022/03/24 08:43:41;;;;;;;38.35;30.75;;;;;;;24.03;40.41;103031.69;5026599;28;20029;-79
2022/03/24 08:46:08;;;;;;;38.47;30.35;;;;;;;24.73;39.36;103042.94;4998903;28;20069;-79
2022/03/24 08:48:34;;;;;;;42.78;32.75;;;;;;;24.50;39.15;103022.38;5022326;28;20044;-79
2022/03/24 08:51:00;;;;;;;41.22;30.60;;;;;;;25.07;38.09;103038.72;5015978;28;20489;-79
2022/03/24 08:53:25;;;;;;;39.13;31.00;;;;;;;25.47;37.96;103039.09;5001985;28;20025;-79
2022/03/24 08:55:51;;;;;;;37.83;28.90;;;;;;;25.81;36.80;103041.81;4998766;28;20033;-78
2022/03/24 08:58:18;;;;;;;36.17;29.70;;;;;;;26.42;36.06;103046.50;5014063;28;20148;-77
2022/03/24 09:00:46;;;;;;;42.65;31.40;;;;;;;26.55;36.44;103032.19;5016656;28;20022;-77
2022/03/24 09:03:12;;;;;;;37.53;29.45;;;;;;;26.82;35.74;103048.50;5014779;28;20087;-79
2022/03/24 09:05:38;;;;;;;36.55;27.98;;;;;;;27.23;35.44;103051.09;5013123;28;20689;-78
2022/03/24 09:08:04;;;;;;;40.40;30.00;;;;;;;27.53;35.00;103028.97;5013056;28;20057;-79
2022/03/24 09:10:30;;;;;;;39.50;31.30;;;;;;;27.70;34.62;103049.19;5017980;28;20462;-79
2022/03/24 09:12:56;;;;;;;37.15;30.27;;;;;;;27.92;34.66;103048.09;5017897;28;20022;-78
2022/03/24 09:15:21;;;;;;;41.03;30.88;;;;;;;28.27;34.34;103038.59;5017784;28;20724;-78
2022/03/24 09:17:48;;;;;;;36.00;29.80;;;;;;;29.00;33.53;103045.47;5017297;28;20021;-78
2022/03/24 09:20:16;;;;;;;39.53;31.27;;;;;;;28.94;33.52;103057.25;5018289;28;20030;-78
2022/03/24 09:22:47;;;;;;;43.13;29.27;;;;;;;29.42;33.31;103059.38;5017068;28;20500;-79
2022/03/24 09:25:18;;;;;;;34.97;30.60;;;;;;;29.61;32.92;103043.09;5025204;28;20473;-79
2022/03/24 09:27:44;;;;;;;39.30;30.38;;;;;;;29.88;33.21;103055.38;5023691;28;20459;-78
2022/03/24 09:30:15;;;;;;;40.50;32.08;;;;;;;30.59;32.30;103061.22;5010425;28;20108;-78
2022/03/24 09:32:41;;;;;;;38.72;31.25;;;;;;;30.84;31.38;103049.34;5020343;28;20057;-78
2022/03/24 09:35:07;;;;;;;35.95;29.42;;;;;;;30.89;31.54;103054.94;5016538;28;20057;-79
2022/03/24 09:37:33;;;;;;;33.92;28.88;;;;;;;31.27;31.33;103061.84;5020316;28;20056;-79
2022/03/24 09:40:00;;;;;;;36.13;30.23;;;;;;;31.13;30.70;103064.00;5024207;28;20025;-78
2022/03/24 09:42:27;;;;;;;38.60;30.92;;;;;;;31.07;30.86;103049.38;5023780;28;20045;-78
2022/03/24 09:44:57;;;;;;;38.33;31.05;;;;;;;31.23;30.94;103052.47;5021307;28;20765;-78
2022/03/24 09:47:25;;;;;;;34.60;29.33;;;;;;;31.17;31.01;103048.81;5016666;28;20095;-78
2022/03/24 09:49:51;;;;;;;37.25;29.33;;;;;;;31.67;30.25;103053.81;5013294;28;20033;-79
2022/03/24 09:52:16;;;;;;;32.88;29.33;;;;;;;32.21;29.33;103063.69;5013621;28;20026;-79
2022/03/24 09:54:42;;;;;;;34.75;28.85;;;;;;;32.76;28.82;103061.22;5017945;28;20041;-79
2022/03/24 09:57:09;;;;;;;39.20;30.00;;;;;;;32.69;28.74;103048.78;5016880;28;20478;-79
2022/03/24 09:59:35;;;;;;;34.90;29.00;;;;;;;32.83;29.22;103066.53;5018396;28;20034;-80
2022/03/24 10:02:03;;;;;;;36.88;30.27;;;;;;;33.27;27.89;103060.41;5020896;28;20026;-79
2022/03/24 10:04:44;;;;;;;36.50;31.42;;;;;;;33.10;28.79;103039.38;5020355;28;20095;-78
2022/03/24 10:07:09;;;;;;;39.58;30.70;;;;;;;33.25;28.00;103057.09;5017433;28;20045;-78
2022/03/24 10:09:43;;;;;;;34.90;30.00;;;;;;;33.31;28.11;103050.63;5018190;28;20060;-79
2022/03/24 10:12:18;;;;;;;37.15;29.50;;;;;;;33.76;27.52;103057.88;5018623;28;20387;-79
2022/03/24 10:14:43;;;;;;;36.28;30.67;;;;;;;33.64;28.04;103059.88;5026071;28;20490;-78
2022/03/24 10:17:11;;;;;;;35.55;30.98;;;;;;;33.81;27.35;103041.50;5018224;28;20033;-78
2022/03/24 10:19:37;;;;;;;33.70;29.65;;;;;;;34.01;27.50;103027.22;5004575;28;20029;-78
2022/03/24 10:22:08;;;;;;;33.60;29.95;;;;;;;34.00;27.13;103055.69;5018990;28;20038;-78
2022/03/24 10:24:40;;;;;;;37.53;29.40;;;;;;;34.27;28.44;103047.53;5021329;28;20078;-78
2022/03/24 10:27:05;;;;;;;37.75;31.83;;;;;;;34.27;27.48;103052.19;5023707;28;20021;-78
2022/03/24 10:29:33;;;;;;;36.63;30.52;;;;;;;34.44;27.84;103052.91;5023108;28;20048;-79
2022/03/24 10:32:02;;;;;;;35.88;31.52;;;;;;;34.69;26.82;103052.38;5020745;28;20098;-78
2022/03/24 10:34:29;;;;;;;35.77;30.47;;;;;;;35.40;26.73;103051.28;5025496;28;20417;-78
2022/03/24 10:36:55;;;;;;;35.28;30.60;;;;;;;35.53;25.88;103037.06;5024108;28;20025;-79
2022/03/24 10:39:24;;;;;;;37.78;31.80;;;;;;;35.57;25.45;103051.09;5023147;28;20022;-79
2022/03/24 10:41:50;;;;;;;35.53;30.38;;;;;;;35.47;25.64;103051.84;5022166;28;20401;-78
2022/03/24 10:44:15;;;;;;;37.03;31.13;;;;;;;35.68;25.81;103060.25;5018815;28;20045;-78
2022/03/24 10:46:44;;;;;;;40.63;31.88;;;;;;;35.30;25.47;103051.19;5018669;28;20034;-78
2022/03/24 10:49:20;;;;;;;38.92;31.35;;;;;;;34.72;26.87;103048.28;5016519;28;20132;-78
2022/03/24 10:51:48;;;;;;;36.60;31.27;;;;;;;35.14;26.65;103051.09;5021318;28;20051;-78
2022/03/24 10:54:20;;;;;;;38.10;32.53;;;;;;;34.98;25.83;103035.59;5024013;28;20043;-78
2022/03/24 10:56:52;;;;;;;36.30;31.38;;;;;;;35.46;26.28;103044.72;5023325;28;20028;-78
2022/03/24 10:59:17;;;;;;;38.70;32.72;;;;;;;35.75;26.00;103039.66;5021521;28;20017;-78
2022/03/24 11:01:43;;;;;;;35.60;31.23;;;;;;;35.79;24.89;103037.22;5005574;28;20045;-78
2022/03/24 11:04:09;;;;;;;37.17;32.15;;;;;;;35.86;25.55;103046.03;5018972;28;20029;-78
2022/03/24 11:06:34;;;;;;;37.97;32.10;;;;;;;36.10;25.25;103045.56;4985274;28;20104;-78
2022/03/24 11:09:01;;;;;;;38.63;31.65;;;;;;;35.50;25.70;103047.78;5021873;28;20040;-78
2022/03/24 11:11:29;;;;;;;36.97;32.88;;;;;;;35.19;26.19;103042.91;5016368;28;20101;-78
2022/03/24 11:13:58;;;;;;;41.47;32.63;;;;;;;34.72;27.01;103037.31;5001845;28;20041;-78
2022/03/24 11:16:27;;;;;;;37.15;32.38;;;;;;;35.05;26.97;103041.69;5017684;28;20471;-78
2022/03/24 11:18:56;;;;;;;37.63;30.43;;;;;;;34.98;26.43;103041.09;5018792;28;20022;-78